sensor_id;sensor_type;location;lat;lon;timestamp;P1;durP1;ratioP1;P2;durP2;ratioP2
11988;SDS011;6054;50.966;7.094;2024-01-07T00:00:28;24.17;;;14.10;;
11988;SDS011;6054;50.966;7.094;2024-01-07T00:02:56;22.10;;;13.45;;
11988;SDS011;6054;50.966;7.094;2024-01-07T00:05:24;20.85;;;13.02;;
11988;SDS011;6054;50.966;7.094;2024-01-07T00:07:51;22.67;;;13.73;;
11988;SDS011;6054;50.966;7.094;2024-01-07T00:10:18;23.42;;;13.57;;
11988;SDS011;6054;50.966;7.094;2024-01-07T00:12:44;21.25;;;12.10;;
11988;SDS011;6054;50.966;7.094;2024-01-07T00:15:11;20.20;;;12.83;;
11988;SDS011;6054;50.966;7.094;2024-01-07T00:17:38;21.63;;;12.30;;
11988;SDS011;6054;50.966;7.094;2024-01-07T00:20:06;21.92;;;11.80;;
11988;SDS011;6054;50.966;7.094;2024-01-07T00:22:35;18.70;;;12.00;;
11988;SDS011;6054;50.966;7.094;2024-01-07T00:25:01;21.33;;;11.65;;
11988;SDS011;6054;50.966;7.094;2024-01-07T00:27:28;18.47;;;11.67;;
11988;SDS011;6054;50.966;7.094;2024-01-07T00:29:55;19.20;;;12.10;;
11988;SDS011;6054;50.966;7.094;2024-01-07T00:32:22;15.43;;;10.65;;
11988;SDS011;6054;50.966;7.094;2024-01-07T00:34:49;19.35;;;11.48;;
11988;SDS011;6054;50.966;7.094;2024-01-07T00:37:16;17.33;;;10.75;;
11988;SDS011;6054;50.966;7.094;2024-01-07T00:39:44;16.80;;;10.90;;
11988;SDS011;6054;50.966;7.094;2024-01-07T00:42:11;16.95;;;10.52;;
11988;SDS011;6054;50.966;7.094;2024-01-07T00:44:37;17.10;;;10.38;;
11988;SDS011;6054;50.966;7.094;2024-01-07T00:47:04;15.63;;;10.13;;
11988;SDS011;6054;50.966;7.094;2024-01-07T00:49:31;15.65;;;9.90;;
11988;SDS011;6054;50.966;7.094;2024-01-07T00:51:58;14.82;;;9.68;;
11988;SDS011;6054;50.966;7.094;2024-01-07T00:54:24;15.85;;;10.43;;
11988;SDS011;6054;50.966;7.094;2024-01-07T00:56:53;16.70;;;10.47;;
11988;SDS011;6054;50.966;7.094;2024-01-07T00:59:19;16.85;;;10.02;;
11988;SDS011;6054;50.966;7.094;2024-01-07T01:01:46;16.80;;;10.70;;
11988;SDS011;6054;50.966;7.094;2024-01-07T01:04:13;16.20;;;10.10;;
11988;SDS011;6054;50.966;7.094;2024-01-07T01:06:40;17.08;;;9.63;;
11988;SDS011;6054;50.966;7.094;2024-01-07T01:09:07;14.18;;;10.00;;
11988;SDS011;6054;50.966;7.094;2024-01-07T01:11:33;15.57;;;9.80;;
11988;SDS011;6054;50.966;7.094;2024-01-07T01:14:02;16.13;;;9.80;;
11988;SDS011;6054;50.966;7.094;2024-01-07T01:16:28;13.55;;;8.73;;
11988;SDS011;6054;50.966;7.094;2024-01-07T01:18:55;15.95;;;9.00;;
11988;SDS011;6054;50.966;7.094;2024-01-07T01:21:22;13.18;;;8.13;;
11988;SDS011;6054;50.966;7.094;2024-01-07T01:23:49;12.88;;;8.73;;
11988;SDS011;6054;50.966;7.094;2024-01-07T01:26:15;11.35;;;7.75;;
11988;SDS011;6054;50.966;7.094;2024-01-07T01:28:42;11.37;;;7.50;;
11988;SDS011;6054;50.966;7.094;2024-01-07T01:31:13;11.32;;;7.53;;
11988;SDS011;6054;50.966;7.094;2024-01-07T01:33:40;10.70;;;7.40;;
11988;SDS011;6054;50.966;7.094;2024-01-07T01:36:07;10.90;;;7.20;;
11988;SDS011;6054;50.966;7.094;2024-01-07T01:38:35;12.60;;;7.63;;
11988;SDS011;6054;50.966;7.094;2024-01-07T01:41:02;12.52;;;6.90;;
11988;SDS011;6054;50.966;7.094;2024-01-07T01:43:29;9.87;;;6.60;;
11988;SDS011;6054;50.966;7.094;2024-01-07T01:45:56;9.80;;;6.43;;
11988;SDS011;6054;50.966;7.094;2024-01-07T01:48:25;10.02;;;6.95;;
11988;SDS011;6054;50.966;7.094;2024-01-07T01:50:53;9.30;;;5.93;;
11988;SDS011;6054;50.966;7.094;2024-01-07T01:53:22;9.35;;;6.20;;
11988;SDS011;6054;50.966;7.094;2024-01-07T01:55:50;9.13;;;5.90;;
11988;SDS011;6054;50.966;7.094;2024-01-07T01:58:17;10.05;;;6.13;;
11988;SDS011;6054;50.966;7.094;2024-01-07T02:00:45;10.05;;;6.60;;
11988;SDS011;6054;50.966;7.094;2024-01-07T02:03:12;11.77;;;7.35;;
11988;SDS011;6054;50.966;7.094;2024-01-07T02:05:40;11.05;;;7.65;;
11988;SDS011;6054;50.966;7.094;2024-01-07T02:08:07;12.52;;;7.93;;
11988;SDS011;6054;50.966;7.094;2024-01-07T02:10:34;13.68;;;8.27;;
11988;SDS011;6054;50.966;7.094;2024-01-07T02:13:01;13.10;;;8.02;;
11988;SDS011;6054;50.966;7.094;2024-01-07T02:15:28;15.23;;;8.77;;
11988;SDS011;6054;50.966;7.094;2024-01-07T02:17:55;18.58;;;9.52;;
11988;SDS011;6054;50.966;7.094;2024-01-07T02:20:22;15.17;;;9.83;;
11988;SDS011;6054;50.966;7.094;2024-01-07T02:22:50;15.32;;;9.55;;
11988;SDS011;6054;50.966;7.094;2024-01-07T02:25:18;16.83;;;10.05;;
11988;SDS011;6054;50.966;7.094;2024-01-07T02:27:45;18.38;;;11.07;;
11988;SDS011;6054;50.966;7.094;2024-01-07T02:30:12;17.85;;;10.27;;
11988;SDS011;6054;50.966;7.094;2024-01-07T02:32:39;17.52;;;10.80;;
11988;SDS011;6054;50.966;7.094;2024-01-07T02:35:06;16.80;;;11.20;;
11988;SDS011;6054;50.966;7.094;2024-01-07T02:37:33;19.35;;;11.93;;
11988;SDS011;6054;50.966;7.094;2024-01-07T02:40:00;19.23;;;11.80;;
11988;SDS011;6054;50.966;7.094;2024-01-07T02:42:28;19.80;;;12.93;;
11988;SDS011;6054;50.966;7.094;2024-01-07T02:44:55;19.75;;;12.82;;
11988;SDS011;6054;50.966;7.094;2024-01-07T02:47:22;18.45;;;12.07;;
11988;SDS011;6054;50.966;7.094;2024-01-07T02:49:49;17.13;;;11.73;;
11988;SDS011;6054;50.966;7.094;2024-01-07T02:52:15;18.48;;;12.15;;
11988;SDS011;6054;50.966;7.094;2024-01-07T02:54:42;18.55;;;12.48;;
11988;SDS011;6054;50.966;7.094;2024-01-07T02:57:09;17.23;;;11.93;;
11988;SDS011;6054;50.966;7.094;2024-01-07T02:59:37;18.75;;;11.80;;
11988;SDS011;6054;50.966;7.094;2024-01-07T03:02:04;18.05;;;12.00;;
11988;SDS011;6054;50.966;7.094;2024-01-07T03:04:31;17.77;;;11.87;;
11988;SDS011;6054;50.966;7.094;2024-01-07T03:06:57;17.10;;;10.93;;
11988;SDS011;6054;50.966;7.094;2024-01-07T03:09:24;17.10;;;10.82;;
11988;SDS011;6054;50.966;7.094;2024-01-07T03:11:51;14.00;;;10.10;;
11988;SDS011;6054;50.966;7.094;2024-01-07T03:14:19;14.52;;;10.05;;
11988;SDS011;6054;50.966;7.094;2024-01-07T03:16:48;14.07;;;9.32;;
11988;SDS011;6054;50.966;7.094;2024-01-07T03:19:15;13.88;;;9.55;;
11988;SDS011;6054;50.966;7.094;2024-01-07T03:21:41;13.55;;;9.75;;
11988;SDS011;6054;50.966;7.094;2024-01-07T03:24:08;11.43;;;8.65;;
11988;SDS011;6054;50.966;7.094;2024-01-07T03:26:36;13.40;;;8.10;;
11988;SDS011;6054;50.966;7.094;2024-01-07T03:29:03;9.63;;;6.93;;
11988;SDS011;6054;50.966;7.094;2024-01-07T03:31:30;10.23;;;6.88;;
11988;SDS011;6054;50.966;7.094;2024-01-07T03:33:58;7.70;;;6.20;;
11988;SDS011;6054;50.966;7.094;2024-01-07T03:36:25;9.75;;;7.05;;
11988;SDS011;6054;50.966;7.094;2024-01-07T03:38:51;10.80;;;6.90;;
11988;SDS011;6054;50.966;7.094;2024-01-07T03:41:19;10.30;;;6.93;;
11988;SDS011;6054;50.966;7.094;2024-01-07T03:43:47;10.57;;;7.53;;
11988;SDS011;6054;50.966;7.094;2024-01-07T03:46:14;12.23;;;7.43;;
11988;SDS011;6054;50.966;7.094;2024-01-07T03:48:41;11.02;;;7.40;;
11988;SDS011;6054;50.966;7.094;2024-01-07T03:51:09;11.25;;;7.25;;
11988;SDS011;6054;50.966;7.094;2024-01-07T03:53:36;12.23;;;7.45;;
11988;SDS011;6054;50.966;7.094;2024-01-07T03:56:03;10.93;;;7.13;;
11988;SDS011;6054;50.966;7.094;2024-01-07T03:58:30;11.98;;;8.18;;
11988;SDS011;6054;50.966;7.094;2024-01-07T04:00:57;10.63;;;7.07;;
11988;SDS011;6054;50.966;7.094;2024-01-07T04:03:24;10.50;;;7.30;;
11988;SDS011;6054;50.966;7.094;2024-01-07T04:05:51;11.00;;;7.57;;
11988;SDS011;6054;50.966;7.094;2024-01-07T04:08:19;10.03;;;7.73;;
11988;SDS011;6054;50.966;7.094;2024-01-07T04:10:46;13.40;;;7.55;;
11988;SDS011;6054;50.966;7.094;2024-01-07T04:13:12;13.40;;;8.32;;
11988;SDS011;6054;50.966;7.094;2024-01-07T04:15:39;12.40;;;8.13;;
11988;SDS011;6054;50.966;7.094;2024-01-07T04:18:06;11.88;;;7.53;;
11988;SDS011;6054;50.966;7.094;2024-01-07T04:20:32;12.63;;;8.18;;
11988;SDS011;6054;50.966;7.094;2024-01-07T04:22:59;11.05;;;8.27;;
11988;SDS011;6054;50.966;7.094;2024-01-07T04:25:27;13.10;;;8.15;;
11988;SDS011;6054;50.966;7.094;2024-01-07T04:27:54;12.10;;;7.78;;
11988;SDS011;6054;50.966;7.094;2024-01-07T04:30:21;11.48;;;7.63;;
11988;SDS011;6054;50.966;7.094;2024-01-07T04:32:47;13.85;;;8.73;;
11988;SDS011;6054;50.966;7.094;2024-01-07T04:35:14;12.20;;;8.10;;
11988;SDS011;6054;50.966;7.094;2024-01-07T04:37:41;13.60;;;8.60;;
11988;SDS011;6054;50.966;7.094;2024-01-07T04:40:09;13.50;;;8.45;;
11988;SDS011;6054;50.966;7.094;2024-01-07T04:42:37;15.32;;;8.60;;
11988;SDS011;6054;50.966;7.094;2024-01-07T04:45:04;14.18;;;9.45;;
11988;SDS011;6054;50.966;7.094;2024-01-07T04:47:32;14.35;;;9.02;;
11988;SDS011;6054;50.966;7.094;2024-01-07T04:50:00;14.10;;;9.43;;
11988;SDS011;6054;50.966;7.094;2024-01-07T04:52:27;16.27;;;9.63;;
11988;SDS011;6054;50.966;7.094;2024-01-07T04:54:54;16.10;;;9.68;;
11988;SDS011;6054;50.966;7.094;2024-01-07T04:57:21;13.37;;;8.90;;
11988;SDS011;6054;50.966;7.094;2024-01-07T04:59:50;14.88;;;10.27;;
11988;SDS011;6054;50.966;7.094;2024-01-07T05:02:17;14.50;;;9.13;;
11988;SDS011;6054;50.966;7.094;2024-01-07T05:04:43;15.52;;;10.15;;
11988;SDS011;6054;50.966;7.094;2024-01-07T05:07:10;16.70;;;10.32;;
11988;SDS011;6054;50.966;7.094;2024-01-07T05:09:37;15.32;;;9.57;;
11988;SDS011;6054;50.966;7.094;2024-01-07T05:12:05;13.73;;;9.32;;
11988;SDS011;6054;50.966;7.094;2024-01-07T05:14:32;14.25;;;9.48;;
11988;SDS011;6054;50.966;7.094;2024-01-07T05:17:00;15.35;;;9.40;;
11988;SDS011;6054;50.966;7.094;2024-01-07T05:19:27;17.77;;;10.43;;
11988;SDS011;6054;50.966;7.094;2024-01-07T05:21:54;14.45;;;9.43;;
11988;SDS011;6054;50.966;7.094;2024-01-07T05:24:21;15.65;;;9.73;;
11988;SDS011;6054;50.966;7.094;2024-01-07T05:26:48;14.45;;;9.93;;
11988;SDS011;6054;50.966;7.094;2024-01-07T05:29:15;14.73;;;9.93;;
11988;SDS011;6054;50.966;7.094;2024-01-07T05:31:41;11.73;;;8.48;;
11988;SDS011;6054;50.966;7.094;2024-01-07T05:34:09;15.00;;;9.87;;
11988;SDS011;6054;50.966;7.094;2024-01-07T05:36:36;13.77;;;9.50;;
11988;SDS011;6054;50.966;7.094;2024-01-07T05:39:03;16.38;;;10.32;;
11988;SDS011;6054;50.966;7.094;2024-01-07T05:41:31;14.45;;;9.68;;
11988;SDS011;6054;50.966;7.094;2024-01-07T05:43:58;14.57;;;9.27;;
11988;SDS011;6054;50.966;7.094;2024-01-07T05:46:25;12.30;;;8.70;;
11988;SDS011;6054;50.966;7.094;2024-01-07T05:48:52;11.75;;;8.68;;
11988;SDS011;6054;50.966;7.094;2024-01-07T05:51:20;12.80;;;9.23;;
11988;SDS011;6054;50.966;7.094;2024-01-07T05:53:46;14.63;;;9.75;;
11988;SDS011;6054;50.966;7.094;2024-01-07T05:56:13;14.35;;;9.35;;
11988;SDS011;6054;50.966;7.094;2024-01-07T05:58:40;15.18;;;9.90;;
11988;SDS011;6054;50.966;7.094;2024-01-07T06:01:07;12.73;;;9.30;;
11988;SDS011;6054;50.966;7.094;2024-01-07T06:03:34;14.45;;;9.93;;
11988;SDS011;6054;50.966;7.094;2024-01-07T06:06:01;14.55;;;9.85;;
11988;SDS011;6054;50.966;7.094;2024-01-07T06:08:29;14.38;;;8.48;;
11988;SDS011;6054;50.966;7.094;2024-01-07T06:10:56;13.50;;;9.55;;
11988;SDS011;6054;50.966;7.094;2024-01-07T06:13:23;12.48;;;9.38;;
11988;SDS011;6054;50.966;7.094;2024-01-07T06:15:49;13.63;;;9.40;;
11988;SDS011;6054;50.966;7.094;2024-01-07T06:18:16;17.15;;;9.98;;
11988;SDS011;6054;50.966;7.094;2024-01-07T06:20:43;14.68;;;9.48;;
11988;SDS011;6054;50.966;7.094;2024-01-07T06:23:10;15.57;;;10.43;;
11988;SDS011;6054;50.966;7.094;2024-01-07T06:25:38;18.50;;;9.75;;
11988;SDS011;6054;50.966;7.094;2024-01-07T06:28:05;17.27;;;9.80;;
11988;SDS011;6054;50.966;7.094;2024-01-07T06:30:32;13.40;;;9.18;;
11988;SDS011;6054;50.966;7.094;2024-01-07T06:32:59;13.55;;;8.95;;
11988;SDS011;6054;50.966;7.094;2024-01-07T06:35:25;14.95;;;9.82;;
11988;SDS011;6054;50.966;7.094;2024-01-07T06:37:53;15.23;;;9.55;;
11988;SDS011;6054;50.966;7.094;2024-01-07T06:40:20;15.60;;;10.30;;
11988;SDS011;6054;50.966;7.094;2024-01-07T06:42:49;12.97;;;8.80;;
11988;SDS011;6054;50.966;7.094;2024-01-07T06:45:16;14.70;;;9.73;;
11988;SDS011;6054;50.966;7.094;2024-01-07T06:47:43;14.40;;;9.50;;
11988;SDS011;6054;50.966;7.094;2024-01-07T06:50:11;13.50;;;8.73;;
11988;SDS011;6054;50.966;7.094;2024-01-07T06:52:37;15.40;;;10.00;;
11988;SDS011;6054;50.966;7.094;2024-01-07T06:55:05;13.60;;;10.02;;
11988;SDS011;6054;50.966;7.094;2024-01-07T06:57:32;13.68;;;9.18;;
11988;SDS011;6054;50.966;7.094;2024-01-07T07:00:00;13.80;;;9.85;;
11988;SDS011;6054;50.966;7.094;2024-01-07T07:02:29;13.73;;;9.48;;
11988;SDS011;6054;50.966;7.094;2024-01-07T07:04:56;11.80;;;8.98;;
11988;SDS011;6054;50.966;7.094;2024-01-07T07:07:23;12.88;;;9.30;;
11988;SDS011;6054;50.966;7.094;2024-01-07T07:09:50;12.90;;;9.27;;
11988;SDS011;6054;50.966;7.094;2024-01-07T07:12:17;13.10;;;8.75;;
11988;SDS011;6054;50.966;7.094;2024-01-07T07:14:44;12.75;;;8.43;;
11988;SDS011;6054;50.966;7.094;2024-01-07T07:17:13;11.80;;;8.32;;
11988;SDS011;6054;50.966;7.094;2024-01-07T07:19:39;10.98;;;7.10;;
11988;SDS011;6054;50.966;7.094;2024-01-07T07:22:06;9.73;;;7.78;;
11988;SDS011;6054;50.966;7.094;2024-01-07T07:24:33;10.27;;;8.18;;
11988;SDS011;6054;50.966;7.094;2024-01-07T07:27:00;13.43;;;8.98;;
11988;SDS011;6054;50.966;7.094;2024-01-07T07:29:26;13.52;;;8.85;;
11988;SDS011;6054;50.966;7.094;2024-01-07T07:31:53;12.20;;;8.52;;
11988;SDS011;6054;50.966;7.094;2024-01-07T07:34:21;11.65;;;8.48;;
11988;SDS011;6054;50.966;7.094;2024-01-07T07:36:48;11.25;;;7.63;;
11988;SDS011;6054;50.966;7.094;2024-01-07T07:39:14;11.57;;;8.23;;
11988;SDS011;6054;50.966;7.094;2024-01-07T07:41:41;10.57;;;8.48;;
11988;SDS011;6054;50.966;7.094;2024-01-07T07:44:08;9.85;;;7.28;;
11988;SDS011;6054;50.966;7.094;2024-01-07T07:46:35;11.63;;;7.90;;
11988;SDS011;6054;50.966;7.094;2024-01-07T07:49:01;12.38;;;8.43;;
11988;SDS011;6054;50.966;7.094;2024-01-07T07:51:29;9.98;;;7.65;;
11988;SDS011;6054;50.966;7.094;2024-01-07T07:53:56;12.02;;;8.85;;
11988;SDS011;6054;50.966;7.094;2024-01-07T07:56:23;9.95;;;8.13;;
11988;SDS011;6054;50.966;7.094;2024-01-07T07:58:50;11.00;;;8.23;;
11988;SDS011;6054;50.966;7.094;2024-01-07T08:01:17;12.68;;;8.55;;
11988;SDS011;6054;50.966;7.094;2024-01-07T08:03:44;9.65;;;7.40;;
11988;SDS011;6054;50.966;7.094;2024-01-07T08:06:11;11.60;;;7.93;;
11988;SDS011;6054;50.966;7.094;2024-01-07T08:08:39;9.05;;;6.70;;
11988;SDS011;6054;50.966;7.094;2024-01-07T08:11:06;9.70;;;7.50;;
11988;SDS011;6054;50.966;7.094;2024-01-07T08:13:34;11.85;;;7.75;;
11988;SDS011;6054;50.966;7.094;2024-01-07T08:16:02;10.35;;;7.82;;
11988;SDS011;6054;50.966;7.094;2024-01-07T08:18:30;12.20;;;7.63;;
11988;SDS011;6054;50.966;7.094;2024-01-07T08:20:57;10.05;;;7.68;;
11988;SDS011;6054;50.966;7.094;2024-01-07T08:23:24;9.90;;;7.90;;
11988;SDS011;6054;50.966;7.094;2024-01-07T08:25:53;10.80;;;8.05;;
11988;SDS011;6054;50.966;7.094;2024-01-07T08:28:20;11.70;;;8.00;;
11988;SDS011;6054;50.966;7.094;2024-01-07T08:30:46;12.25;;;8.73;;
11988;SDS011;6054;50.966;7.094;2024-01-07T08:33:14;11.88;;;9.30;;
11988;SDS011;6054;50.966;7.094;2024-01-07T08:35:41;14.20;;;9.20;;
11988;SDS011;6054;50.966;7.094;2024-01-07T08:38:08;14.67;;;9.70;;
11988;SDS011;6054;50.966;7.094;2024-01-07T08:40:35;13.68;;;9.00;;
11988;SDS011;6054;50.966;7.094;2024-01-07T08:43:03;13.35;;;9.20;;
11988;SDS011;6054;50.966;7.094;2024-01-07T08:45:30;12.60;;;8.88;;
11988;SDS011;6054;50.966;7.094;2024-01-07T08:47:57;14.27;;;9.57;;
11988;SDS011;6054;50.966;7.094;2024-01-07T08:50:24;17.05;;;10.13;;
11988;SDS011;6054;50.966;7.094;2024-01-07T08:52:51;13.55;;;9.32;;
11988;SDS011;6054;50.966;7.094;2024-01-07T08:55:17;15.23;;;9.93;;
11988;SDS011;6054;50.966;7.094;2024-01-07T08:57:44;14.57;;;9.13;;
11988;SDS011;6054;50.966;7.094;2024-01-07T09:00:16;13.45;;;8.45;;
11988;SDS011;6054;50.966;7.094;2024-01-07T09:02:43;13.35;;;9.43;;
11988;SDS011;6054;50.966;7.094;2024-01-07T09:05:10;15.38;;;9.52;;
11988;SDS011;6054;50.966;7.094;2024-01-07T09:07:38;15.70;;;9.85;;
11988;SDS011;6054;50.966;7.094;2024-01-07T09:10:06;14.90;;;9.38;;
11988;SDS011;6054;50.966;7.094;2024-01-07T09:12:35;13.77;;;9.70;;
11988;SDS011;6054;50.966;7.094;2024-01-07T09:15:02;16.35;;;10.10;;
11988;SDS011;6054;50.966;7.094;2024-01-07T09:17:34;12.65;;;9.05;;
11988;SDS011;6054;50.966;7.094;2024-01-07T09:20:01;13.48;;;9.35;;
11988;SDS011;6054;50.966;7.094;2024-01-07T09:22:30;12.63;;;9.00;;
11988;SDS011;6054;50.966;7.094;2024-01-07T09:24:57;15.50;;;9.25;;
11988;SDS011;6054;50.966;7.094;2024-01-07T09:27:24;15.87;;;9.80;;
11988;SDS011;6054;50.966;7.094;2024-01-07T09:29:51;14.40;;;9.05;;
11988;SDS011;6054;50.966;7.094;2024-01-07T09:32:18;13.48;;;9.10;;
11988;SDS011;6054;50.966;7.094;2024-01-07T09:34:46;13.53;;;8.70;;
11988;SDS011;6054;50.966;7.094;2024-01-07T09:37:13;12.30;;;8.90;;
11988;SDS011;6054;50.966;7.094;2024-01-07T09:39:43;12.03;;;8.57;;
11988;SDS011;6054;50.966;7.094;2024-01-07T09:42:43;13.68;;;8.40;;
11988;SDS011;6054;50.966;7.094;2024-01-07T09:45:01;10.95;;;7.05;;
11988;SDS011;6054;50.966;7.094;2024-01-07T09:47:29;8.98;;;7.45;;
11988;SDS011;6054;50.966;7.094;2024-01-07T09:49:57;10.35;;;7.60;;
11988;SDS011;6054;50.966;7.094;2024-01-07T09:52:24;10.45;;;7.43;;
11988;SDS011;6054;50.966;7.094;2024-01-07T09:54:54;10.85;;;7.43;;
11988;SDS011;6054;50.966;7.094;2024-01-07T09:57:25;9.65;;;6.88;;
11988;SDS011;6054;50.966;7.094;2024-01-07T09:59:52;7.82;;;6.32;;
11988;SDS011;6054;50.966;7.094;2024-01-07T10:02:19;6.72;;;5.55;;
11988;SDS011;6054;50.966;7.094;2024-01-07T10:04:47;6.65;;;5.32;;
11988;SDS011;6054;50.966;7.094;2024-01-07T10:07:16;6.93;;;5.50;;
11988;SDS011;6054;50.966;7.094;2024-01-07T10:09:43;5.37;;;4.87;;
11988;SDS011;6054;50.966;7.094;2024-01-07T10:12:10;6.65;;;5.78;;
11988;SDS011;6054;50.966;7.094;2024-01-07T10:14:38;5.80;;;5.20;;
11988;SDS011;6054;50.966;7.094;2024-01-07T10:17:13;5.50;;;4.95;;
11988;SDS011;6054;50.966;7.094;2024-01-07T10:19:42;6.78;;;4.68;;
11988;SDS011;6054;50.966;7.094;2024-01-07T10:22:11;5.95;;;4.55;;
11988;SDS011;6054;50.966;7.094;2024-01-07T10:24:40;6.18;;;4.78;;
11988;SDS011;6054;50.966;7.094;2024-01-07T10:27:08;5.70;;;4.97;;
11988;SDS011;6054;50.966;7.094;2024-01-07T10:29:36;7.07;;;5.75;;
11988;SDS011;6054;50.966;7.094;2024-01-07T10:32:03;6.32;;;5.47;;
11988;SDS011;6054;50.966;7.094;2024-01-07T10:34:31;7.20;;;5.60;;
11988;SDS011;6054;50.966;7.094;2024-01-07T10:37:03;9.05;;;6.43;;
11988;SDS011;6054;50.966;7.094;2024-01-07T10:39:31;8.95;;;6.28;;
11988;SDS011;6054;50.966;7.094;2024-01-07T10:41:59;8.97;;;6.40;;
11988;SDS011;6054;50.966;7.094;2024-01-07T10:44:26;8.35;;;6.93;;
11988;SDS011;6054;50.966;7.094;2024-01-07T10:46:55;10.90;;;8.18;;
11988;SDS011;6054;50.966;7.094;2024-01-07T10:49:23;11.03;;;7.90;;
11988;SDS011;6054;50.966;7.094;2024-01-07T10:51:55;10.65;;;7.75;;
11988;SDS011;6054;50.966;7.094;2024-01-07T10:54:28;10.52;;;7.85;;
11988;SDS011;6054;50.966;7.094;2024-01-07T10:56:58;12.20;;;8.27;;
11988;SDS011;6054;50.966;7.094;2024-01-07T10:59:33;10.35;;;8.13;;
11988;SDS011;6054;50.966;7.094;2024-01-07T11:02:02;11.68;;;8.20;;
11988;SDS011;6054;50.966;7.094;2024-01-07T11:04:34;12.95;;;9.05;;
11988;SDS011;6054;50.966;7.094;2024-01-07T11:07:11;11.20;;;8.32;;
11988;SDS011;6054;50.966;7.094;2024-01-07T11:09:50;11.70;;;8.60;;
11988;SDS011;6054;50.966;7.094;2024-01-07T11:12:30;10.10;;;7.88;;
11988;SDS011;6054;50.966;7.094;2024-01-07T11:14:58;12.02;;;9.13;;
11988;SDS011;6054;50.966;7.094;2024-01-07T11:17:39;12.52;;;9.13;;
11988;SDS011;6054;50.966;7.094;2024-01-07T11:20:11;12.27;;;9.40;;
11988;SDS011;6054;50.966;7.094;2024-01-07T11:22:40;12.30;;;9.30;;
11988;SDS011;6054;50.966;7.094;2024-01-07T11:27:57;13.00;;;8.88;;
11988;SDS011;6054;50.966;7.094;2024-01-07T11:30:24;13.68;;;9.63;;
11988;SDS011;6054;50.966;7.094;2024-01-07T11:32:58;15.68;;;9.63;;
11988;SDS011;6054;50.966;7.094;2024-01-07T11:38:23;11.32;;;9.02;;
11988;SDS011;6054;50.966;7.094;2024-01-07T11:40:50;12.82;;;9.43;;
11988;SDS011;6054;50.966;7.094;2024-01-07T11:43:18;15.30;;;10.02;;
11988;SDS011;6054;50.966;7.094;2024-01-07T11:45:45;11.52;;;8.77;;
11988;SDS011;6054;50.966;7.094;2024-01-07T11:48:13;11.93;;;9.00;;
11988;SDS011;6054;50.966;7.094;2024-01-07T11:50:40;12.70;;;8.77;;
11988;SDS011;6054;50.966;7.094;2024-01-07T11:53:07;11.05;;;8.35;;
11988;SDS011;6054;50.966;7.094;2024-01-07T11:55:35;11.52;;;9.13;;
11988;SDS011;6054;50.966;7.094;2024-01-07T11:58:02;12.77;;;9.15;;
11988;SDS011;6054;50.966;7.094;2024-01-07T12:00:32;13.50;;;9.43;;
11988;SDS011;6054;50.966;7.094;2024-01-07T12:02:59;13.35;;;9.30;;
11988;SDS011;6054;50.966;7.094;2024-01-07T12:05:26;13.18;;;8.57;;
11988;SDS011;6054;50.966;7.094;2024-01-07T12:07:53;17.15;;;8.80;;
11988;SDS011;6054;50.966;7.094;2024-01-07T12:10:20;13.65;;;8.32;;
11988;SDS011;6054;50.966;7.094;2024-01-07T12:12:47;10.07;;;8.00;;
11988;SDS011;6054;50.966;7.094;2024-01-07T12:15:14;11.07;;;8.15;;
11988;SDS011;6054;50.966;7.094;2024-01-07T12:17:42;9.82;;;7.78;;
11988;SDS011;6054;50.966;7.094;2024-01-07T12:20:14;12.52;;;8.50;;
11988;SDS011;6054;50.966;7.094;2024-01-07T12:22:41;9.80;;;7.87;;
11988;SDS011;6054;50.966;7.094;2024-01-07T12:25:08;9.63;;;7.43;;
11988;SDS011;6054;50.966;7.094;2024-01-07T12:27:35;11.37;;;7.63;;
11988;SDS011;6054;50.966;7.094;2024-01-07T12:30:02;11.70;;;8.43;;
11988;SDS011;6054;50.966;7.094;2024-01-07T12:32:31;9.25;;;7.13;;
11988;SDS011;6054;50.966;7.094;2024-01-07T12:34:59;11.25;;;7.97;;
11988;SDS011;6054;50.966;7.094;2024-01-07T12:37:27;9.30;;;7.53;;
11988;SDS011;6054;50.966;7.094;2024-01-07T12:39:54;11.50;;;7.97;;
11988;SDS011;6054;50.966;7.094;2024-01-07T12:42:21;11.02;;;7.50;;
11988;SDS011;6054;50.966;7.094;2024-01-07T12:44:49;8.35;;;6.95;;
11988;SDS011;6054;50.966;7.094;2024-01-07T12:47:16;10.70;;;7.80;;
11988;SDS011;6054;50.966;7.094;2024-01-07T12:49:43;9.45;;;6.97;;
11988;SDS011;6054;50.966;7.094;2024-01-07T12:52:11;8.80;;;6.10;;
11988;SDS011;6054;50.966;7.094;2024-01-07T12:54:38;8.82;;;6.25;;
11988;SDS011;6054;50.966;7.094;2024-01-07T12:57:05;8.80;;;6.25;;
11988;SDS011;6054;50.966;7.094;2024-01-07T12:59:32;7.50;;;5.85;;
11988;SDS011;6054;50.966;7.094;2024-01-07T13:01:58;10.60;;;7.40;;
11988;SDS011;6054;50.966;7.094;2024-01-07T13:04:25;8.75;;;6.65;;
11988;SDS011;6054;50.966;7.094;2024-01-07T13:06:52;6.45;;;5.15;;
11988;SDS011;6054;50.966;7.094;2024-01-07T13:09:20;8.38;;;6.05;;
11988;SDS011;6054;50.966;7.094;2024-01-07T13:11:47;8.50;;;6.30;;
11988;SDS011;6054;50.966;7.094;2024-01-07T13:14:14;8.73;;;5.75;;
11988;SDS011;6054;50.966;7.094;2024-01-07T13:16:41;6.40;;;4.82;;
11988;SDS011;6054;50.966;7.094;2024-01-07T13:19:08;11.10;;;5.85;;
11988;SDS011;6054;50.966;7.094;2024-01-07T13:21:35;7.20;;;5.25;;
11988;SDS011;6054;50.966;7.094;2024-01-07T13:24:03;7.20;;;4.65;;
11988;SDS011;6054;50.966;7.094;2024-01-07T13:26:31;5.70;;;4.40;;
11988;SDS011;6054;50.966;7.094;2024-01-07T13:28:58;7.72;;;4.50;;
11988;SDS011;6054;50.966;7.094;2024-01-07T13:31:25;4.87;;;4.03;;
11988;SDS011;6054;50.966;7.094;2024-01-07T13:33:52;5.97;;;4.03;;
11988;SDS011;6054;50.966;7.094;2024-01-07T13:36:21;4.88;;;3.75;;
11988;SDS011;6054;50.966;7.094;2024-01-07T13:38:49;3.50;;;2.88;;
11988;SDS011;6054;50.966;7.094;2024-01-07T13:41:16;5.50;;;3.93;;
11988;SDS011;6054;50.966;7.094;2024-01-07T13:43:45;6.68;;;3.83;;
11988;SDS011;6054;50.966;7.094;2024-01-07T13:46:11;5.20;;;4.32;;
11988;SDS011;6054;50.966;7.094;2024-01-07T13:48:41;7.23;;;3.83;;
11988;SDS011;6054;50.966;7.094;2024-01-07T13:51:08;4.63;;;4.03;;
11988;SDS011;6054;50.966;7.094;2024-01-07T13:53:35;4.93;;;3.38;;
11988;SDS011;6054;50.966;7.094;2024-01-07T13:56:02;3.80;;;3.40;;
11988;SDS011;6054;50.966;7.094;2024-01-07T13:58:30;4.57;;;3.30;;
11988;SDS011;6054;50.966;7.094;2024-01-07T14:00:58;5.38;;;3.60;;
11988;SDS011;6054;50.966;7.094;2024-01-07T14:03:24;4.63;;;3.13;;
11988;SDS011;6054;50.966;7.094;2024-01-07T14:05:51;3.90;;;3.50;;
11988;SDS011;6054;50.966;7.094;2024-01-07T14:08:19;8.27;;;3.42;;
11988;SDS011;6054;50.966;7.094;2024-01-07T14:10:46;5.70;;;4.53;;
11988;SDS011;6054;50.966;7.094;2024-01-07T14:13:13;5.70;;;4.20;;
11988;SDS011;6054;50.966;7.094;2024-01-07T14:15:40;4.00;;;3.60;;
11988;SDS011;6054;50.966;7.094;2024-01-07T14:18:08;5.60;;;2.80;;
11988;SDS011;6054;50.966;7.094;2024-01-07T14:20:40;3.88;;;3.53;;
11988;SDS011;6054;50.966;7.094;2024-01-07T14:23:07;3.42;;;3.13;;
11988;SDS011;6054;50.966;7.094;2024-01-07T14:25:37;6.80;;;4.05;;
11988;SDS011;6054;50.966;7.094;2024-01-07T14:28:05;4.63;;;3.80;;
11988;SDS011;6054;50.966;7.094;2024-01-07T14:30:32;4.23;;;3.83;;
11988;SDS011;6054;50.966;7.094;2024-01-07T14:32:59;5.43;;;3.60;;
11988;SDS011;6054;50.966;7.094;2024-01-07T14:35:27;5.20;;;3.45;;
11988;SDS011;6054;50.966;7.094;2024-01-07T14:37:55;3.33;;;2.90;;
11988;SDS011;6054;50.966;7.094;2024-01-07T14:40:23;3.90;;;3.50;;
11988;SDS011;6054;50.966;7.094;2024-01-07T14:42:50;4.40;;;3.80;;
11988;SDS011;6054;50.966;7.094;2024-01-07T14:45:18;4.27;;;3.03;;
11988;SDS011;6054;50.966;7.094;2024-01-07T14:47:45;4.83;;;3.50;;
11988;SDS011;6054;50.966;7.094;2024-01-07T14:50:12;4.60;;;3.10;;
11988;SDS011;6054;50.966;7.094;2024-01-07T14:52:40;5.00;;;3.38;;
11988;SDS011;6054;50.966;7.094;2024-01-07T14:55:07;4.63;;;2.87;;